<?xml version="1.0" encoding="UTF-8" standalone="no" ?>
<gpx xmlns="http://www.topografix.com/GPX/1/1" xmlns:xsi="http://www.w3.org/2001/XMLSchema-instance" xsi:schemaLocation="http://www.topografix.com/GPX/1/1 http://www.topografix.com/GPX/1/1/gpx.xsd" version="1.1" creator="VisuGPX - https://www.visugpx.com">
  <metadata>
    <name>Autour de Panissière</name>
    <desc><![CDATA[Saint-Florent sur Auzonnet.sur des sentiers tantôt couverts, tantôt avec vue,]]></desc>
  </metadata>
  <wpt lat="44.21201" lon="4.11149">
    <ele>362.63</ele>
    <name><![CDATA[0000257]]></name>
    <desc><![CDATA[]]></desc>
    <type><![CDATA[Point de départ]]></type>
  </wpt>
  <wpt lat="44.22759" lon="4.09728">
    <ele>311.84</ele>
    <name><![CDATA[0000258]]></name>
    <desc><![CDATA[<br /><h3>Nom: Segment 1</h3><br /><p>Temps de départ: 05/22/2015 09:32</p><p>Temps d'arrivée: 05/22/2015 12:40</p><p>Distance: 6,9km (03:08)</p><p>Temps déplacement: 00:48</p><p>Vitesse moyenne: 2,2km/h</p><p>Vitesse moyenne: 4,1km/h</p><p>Vitess Max.: 6,9km/h</p><p>Altitude minimale: 281m</p><p>Altitude maximale: 501m</p><p>Vitesse d'élévation: 244,6m/h</p><p>Vitesse de descente: -233,3m/h</p><p>Gain Altitude: 321m</p><p>Perte Altitude: -373m</p><p>Temps d'élévation: 01:18</p><p>Temps de descente: 01:36</p>]]></desc>
    <type><![CDATA[Point d'arrivée]]></type>
  </wpt>
  <wpt lat="44.21228" lon="4.1111">
    <ele>369.01</ele>
    <name><![CDATA[0000259]]></name>
    <desc><![CDATA[<br /><h3>Nom: Segment 1</h3><br /><p>Temps de départ: 05/22/2015 09:32</p><p>Temps d'arrivée: 05/22/2015 15:01</p><p>Distance: 10,3km (05:29)</p><p>Temps déplacement: 02:35</p><p>Vitesse moyenne: 1,9km/h</p><p>Vitesse moyenne: 4km/h</p><p>Vitess Max.: 7,3km/h</p><p>Altitude minimale: 281m</p><p>Altitude maximale: 501m</p><p>Vitesse d'élévation: 249,6m/h</p><p>Vitesse de descente: -246,9m/h</p><p>Gain Altitude: 522m</p><p>Perte Altitude: -517m</p><p>Temps d'élévation: 02:05</p><p>Temps de descente: 02:05</p>]]></desc>
    <type><![CDATA[Point d'arrivée]]></type>
  </wpt>
  <trk>
    <name><![CDATA[Panissiere]]></name>
    <desc><![CDATA[<h1>OruxMaps</h1><br /><hr align="center" width="480" style="height: 2px; width: 517px"/><h2>Nom: Panissiere</h2><br /><p>Temps de départ: 05/22/2015 09:32</p><p>Temps d'arrivée: 05/22/2015 15:01</p><p>Distance: 10,3km (05:29)</p><p>Temps déplacement: 02:35</p><p>Vitesse moyenne: 1,9km/h</p><p>Vitesse moyenne: 4km/h</p><p>Vitess Max.: 7,3km/h</p><p>Altitude minimale: 281m</p><p>Altitude maximale: 501m</p><p>Vitesse d'élévation: 249,6m/h</p><p>Vitesse de descente: -246,9m/h</p><p>Gain Altitude: 522m</p><p>Perte Altitude: -517m</p><p>Temps d'élévation: 02:05</p><p>Temps de descente: 02:05</p><hr align="center" width="480" style="height: 2px; width: 517px"/>]]></desc>
    <trkseg>
      <trkpt lat="44.21201" lon="4.11149">
        <ele>362.63</ele>
        <time>2015-05-22T07:32:02Z</time>
      </trkpt>
      <trkpt lat="44.21205" lon="4.11174">
        <ele>375.1</ele>
        <time>2015-05-22T07:35:41Z</time>
      </trkpt>
      <trkpt lat="44.21223" lon="4.11181">
        <ele>375.71</ele>
        <time>2015-05-22T07:35:59Z</time>
      </trkpt>
      <trkpt lat="44.21239" lon="4.11194">
        <ele>371.9</ele>
        <time>2015-05-22T07:36:18Z</time>
      </trkpt>
      <trkpt lat="44.21257" lon="4.11202">
        <ele>367.53</ele>
        <time>2015-05-22T07:36:35Z</time>
      </trkpt>
      <trkpt lat="44.21273" lon="4.11215">
        <ele>354.19</ele>
        <time>2015-05-22T07:37:06Z</time>
      </trkpt>
      <trkpt lat="44.21288" lon="4.11228">
        <ele>354.15</ele>
        <time>2015-05-22T07:37:21Z</time>
      </trkpt>
      <trkpt lat="44.21306" lon="4.11234">
        <ele>347.77</ele>
        <time>2015-05-22T07:37:34Z</time>
      </trkpt>
      <trkpt lat="44.21322" lon="4.11246">
        <ele>345.66</ele>
        <time>2015-05-22T07:38:03Z</time>
      </trkpt>
      <trkpt lat="44.21337" lon="4.11261">
        <ele>348.01</ele>
        <time>2015-05-22T07:38:23Z</time>
      </trkpt>
      <trkpt lat="44.21354" lon="4.11272">
        <ele>344.11</ele>
        <time>2015-05-22T07:38:42Z</time>
      </trkpt>
      <trkpt lat="44.21365" lon="4.11292">
        <ele>346.42</ele>
        <time>2015-05-22T07:39:02Z</time>
      </trkpt>
      <trkpt lat="44.21376" lon="4.11313">
        <ele>347.89</ele>
        <time>2015-05-22T07:39:22Z</time>
      </trkpt>
      <trkpt lat="44.21383" lon="4.11338">
        <ele>349.99</ele>
        <time>2015-05-22T07:39:44Z</time>
      </trkpt>
      <trkpt lat="44.21397" lon="4.11354">
        <ele>345.42</ele>
        <time>2015-05-22T07:40:07Z</time>
      </trkpt>
      <trkpt lat="44.21415" lon="4.11355">
        <ele>339.4</ele>
        <time>2015-05-22T07:40:24Z</time>
      </trkpt>
      <trkpt lat="44.21434" lon="4.11353">
        <ele>342.19</ele>
        <time>2015-05-22T07:40:54Z</time>
      </trkpt>
      <trkpt lat="44.21452" lon="4.11352">
        <ele>343.91</ele>
        <time>2015-05-22T07:41:13Z</time>
      </trkpt>
      <trkpt lat="44.21471" lon="4.1135">
        <ele>341.42</ele>
        <time>2015-05-22T07:41:24Z</time>
      </trkpt>
      <trkpt lat="44.2149" lon="4.11352">
        <ele>340.68</ele>
        <time>2015-05-22T07:41:44Z</time>
      </trkpt>
      <trkpt lat="44.21507" lon="4.11361">
        <ele>341.06</ele>
        <time>2015-05-22T07:42:00Z</time>
      </trkpt>
      <trkpt lat="44.21525" lon="4.11367">
        <ele>338.16</ele>
        <time>2015-05-22T07:42:30Z</time>
      </trkpt>
      <trkpt lat="44.21539" lon="4.11382">
        <ele>335.13</ele>
        <time>2015-05-22T07:42:45Z</time>
      </trkpt>
      <trkpt lat="44.21556" lon="4.11397">
        <ele>340.24</ele>
        <time>2015-05-22T07:43:01Z</time>
      </trkpt>
      <trkpt lat="44.21567" lon="4.11418">
        <ele>337.98</ele>
        <time>2015-05-22T07:43:20Z</time>
      </trkpt>
      <trkpt lat="44.21571" lon="4.11444">
        <ele>342.19</ele>
        <time>2015-05-22T07:43:39Z</time>
      </trkpt>
      <trkpt lat="44.21578" lon="4.11467">
        <ele>338.13</ele>
        <time>2015-05-22T07:43:58Z</time>
      </trkpt>
      <trkpt lat="44.21582" lon="4.11493">
        <ele>337.63</ele>
        <time>2015-05-22T07:44:29Z</time>
      </trkpt>
      <trkpt lat="44.21585" lon="4.11518">
        <ele>334.15</ele>
        <time>2015-05-22T07:44:46Z</time>
      </trkpt>
      <trkpt lat="44.21586" lon="4.11545">
        <ele>334.01</ele>
        <time>2015-05-22T07:45:04Z</time>
      </trkpt>
      <trkpt lat="44.21587" lon="4.1157">
        <ele>333.66</ele>
        <time>2015-05-22T07:45:26Z</time>
      </trkpt>
      <trkpt lat="44.2159" lon="4.11596">
        <ele>330.72</ele>
        <time>2015-05-22T07:45:39Z</time>
      </trkpt>
      <trkpt lat="44.21605" lon="4.11609">
        <ele>313.59</ele>
        <time>2015-05-22T07:46:18Z</time>
      </trkpt>
      <trkpt lat="44.21622" lon="4.1162">
        <ele>316.27</ele>
        <time>2015-05-22T07:52:59Z</time>
      </trkpt>
      <trkpt lat="44.21639" lon="4.1163">
        <ele>320.62</ele>
        <time>2015-05-22T07:53:15Z</time>
      </trkpt>
      <trkpt lat="44.21656" lon="4.11639">
        <ele>319.17</ele>
        <time>2015-05-22T07:53:34Z</time>
      </trkpt>
      <trkpt lat="44.21674" lon="4.11647">
        <ele>319.03</ele>
        <time>2015-05-22T07:54:06Z</time>
      </trkpt>
      <trkpt lat="44.21692" lon="4.11637">
        <ele>313.39</ele>
        <time>2015-05-22T07:54:34Z</time>
      </trkpt>
      <trkpt lat="44.21709" lon="4.11626">
        <ele>307.04</ele>
        <time>2015-05-22T07:55:06Z</time>
      </trkpt>
      <trkpt lat="44.21727" lon="4.11631">
        <ele>301.44</ele>
        <time>2015-05-22T07:55:23Z</time>
      </trkpt>
      <trkpt lat="44.21745" lon="4.11633">
        <ele>300.46</ele>
        <time>2015-05-22T07:55:46Z</time>
      </trkpt>
      <trkpt lat="44.21761" lon="4.11646">
        <ele>297.54</ele>
        <time>2015-05-22T07:56:14Z</time>
      </trkpt>
      <trkpt lat="44.21778" lon="4.11657">
        <ele>298.22</ele>
        <time>2015-05-22T07:56:37Z</time>
      </trkpt>
      <trkpt lat="44.21788" lon="4.11678">
        <ele>296.48</ele>
        <time>2015-05-22T07:56:56Z</time>
      </trkpt>
      <trkpt lat="44.21794" lon="4.11703">
        <ele>298.68</ele>
        <time>2015-05-22T07:57:20Z</time>
      </trkpt>
      <trkpt lat="44.21798" lon="4.11728">
        <ele>300.92</ele>
        <time>2015-05-22T07:57:39Z</time>
      </trkpt>
      <trkpt lat="44.21797" lon="4.11754">
        <ele>296.21</ele>
        <time>2015-05-22T07:58:13Z</time>
      </trkpt>
      <trkpt lat="44.21796" lon="4.1178">
        <ele>287.87</ele>
        <time>2015-05-22T07:58:31Z</time>
      </trkpt>
      <trkpt lat="44.2179" lon="4.11804">
        <ele>283</ele>
        <time>2015-05-22T07:59:15Z</time>
      </trkpt>
      <trkpt lat="44.21787" lon="4.11829">
        <ele>284.58</ele>
        <time>2015-05-22T07:59:35Z</time>
      </trkpt>
      <trkpt lat="44.21788" lon="4.11855">
        <ele>286.34</ele>
        <time>2015-05-22T07:59:55Z</time>
      </trkpt>
      <trkpt lat="44.21783" lon="4.1188">
        <ele>289.56</ele>
        <time>2015-05-22T08:00:13Z</time>
      </trkpt>
      <trkpt lat="44.21786" lon="4.11905">
        <ele>290.69</ele>
        <time>2015-05-22T08:00:33Z</time>
      </trkpt>
      <trkpt lat="44.21786" lon="4.11931">
        <ele>292.59</ele>
        <time>2015-05-22T08:01:01Z</time>
      </trkpt>
      <trkpt lat="44.21794" lon="4.11955">
        <ele>291.12</ele>
        <time>2015-05-22T08:01:25Z</time>
      </trkpt>
      <trkpt lat="44.21813" lon="4.1196">
        <ele>290.24</ele>
        <time>2015-05-22T08:02:03Z</time>
      </trkpt>
      <trkpt lat="44.21831" lon="4.11963">
        <ele>291.52</ele>
        <time>2015-05-22T08:02:19Z</time>
      </trkpt>
      <trkpt lat="44.21849" lon="4.11959">
        <ele>291.46</ele>
        <time>2015-05-22T08:02:47Z</time>
      </trkpt>
      <trkpt lat="44.21867" lon="4.11961">
        <ele>295.12</ele>
        <time>2015-05-22T08:03:32Z</time>
      </trkpt>
      <trkpt lat="44.21885" lon="4.11957">
        <ele>308.11</ele>
        <time>2015-05-22T08:04:43Z</time>
      </trkpt>
      <trkpt lat="44.21903" lon="4.11959">
        <ele>309.28</ele>
        <time>2015-05-22T08:05:03Z</time>
      </trkpt>
      <trkpt lat="44.21922" lon="4.11956">
        <ele>296.97</ele>
        <time>2015-05-22T08:05:26Z</time>
      </trkpt>
      <trkpt lat="44.2194" lon="4.11957">
        <ele>296.95</ele>
        <time>2015-05-22T08:05:47Z</time>
      </trkpt>
      <trkpt lat="44.21958" lon="4.11951">
        <ele>288.65</ele>
        <time>2015-05-22T08:06:12Z</time>
      </trkpt>
      <trkpt lat="44.21976" lon="4.11956">
        <ele>293.06</ele>
        <time>2015-05-22T08:06:24Z</time>
      </trkpt>
      <trkpt lat="44.21995" lon="4.11955">
        <ele>285.64</ele>
        <time>2015-05-22T08:06:39Z</time>
      </trkpt>
      <trkpt lat="44.22013" lon="4.11951">
        <ele>285.05</ele>
        <time>2015-05-22T08:06:58Z</time>
      </trkpt>
      <trkpt lat="44.22031" lon="4.11944">
        <ele>285.44</ele>
        <time>2015-05-22T08:07:45Z</time>
      </trkpt>
      <trkpt lat="44.2205" lon="4.11948">
        <ele>283.13</ele>
        <time>2015-05-22T08:07:56Z</time>
      </trkpt>
      <trkpt lat="44.22068" lon="4.11946">
        <ele>281.27</ele>
        <time>2015-05-22T08:08:09Z</time>
      </trkpt>
      <trkpt lat="44.22085" lon="4.11939">
        <ele>283.9</ele>
        <time>2015-05-22T08:08:26Z</time>
      </trkpt>
      <trkpt lat="44.22103" lon="4.11931">
        <ele>285.98</ele>
        <time>2015-05-22T08:08:40Z</time>
      </trkpt>
      <trkpt lat="44.22116" lon="4.11912">
        <ele>288.35</ele>
        <time>2015-05-22T08:09:00Z</time>
      </trkpt>
      <trkpt lat="44.22132" lon="4.11898">
        <ele>286.01</ele>
        <time>2015-05-22T08:09:21Z</time>
      </trkpt>
      <trkpt lat="44.22147" lon="4.11884">
        <ele>288.76</ele>
        <time>2015-05-22T08:09:38Z</time>
      </trkpt>
      <trkpt lat="44.22165" lon="4.11879">
        <ele>284.51</ele>
        <time>2015-05-22T08:10:00Z</time>
      </trkpt>
      <trkpt lat="44.22183" lon="4.11875">
        <ele>287.39</ele>
        <time>2015-05-22T08:10:21Z</time>
      </trkpt>
      <trkpt lat="44.22202" lon="4.11875">
        <ele>287.97</ele>
        <time>2015-05-22T08:10:50Z</time>
      </trkpt>
      <trkpt lat="44.2222" lon="4.11874">
        <ele>288.89</ele>
        <time>2015-05-22T08:11:18Z</time>
      </trkpt>
      <trkpt lat="44.22238" lon="4.1187">
        <ele>288.75</ele>
        <time>2015-05-22T08:13:11Z</time>
      </trkpt>
      <trkpt lat="44.22251" lon="4.11852">
        <ele>291.13</ele>
        <time>2015-05-22T08:13:34Z</time>
      </trkpt>
      <trkpt lat="44.22265" lon="4.11835">
        <ele>286.75</ele>
        <time>2015-05-22T08:14:10Z</time>
      </trkpt>
      <trkpt lat="44.22282" lon="4.11823">
        <ele>288.14</ele>
        <time>2015-05-22T08:14:33Z</time>
      </trkpt>
      <trkpt lat="44.22295" lon="4.11806">
        <ele>289.82</ele>
        <time>2015-05-22T08:14:53Z</time>
      </trkpt>
      <trkpt lat="44.2231" lon="4.11792">
        <ele>290.33</ele>
        <time>2015-05-22T08:15:04Z</time>
      </trkpt>
      <trkpt lat="44.22328" lon="4.11785">
        <ele>287.22</ele>
        <time>2015-05-22T08:15:27Z</time>
      </trkpt>
      <trkpt lat="44.22345" lon="4.11795">
        <ele>295.53</ele>
        <time>2015-05-22T08:16:09Z</time>
      </trkpt>
      <trkpt lat="44.22362" lon="4.11805">
        <ele>299.45</ele>
        <time>2015-05-22T08:16:44Z</time>
      </trkpt>
      <trkpt lat="44.2238" lon="4.11812">
        <ele>305.81</ele>
        <time>2015-05-22T08:17:01Z</time>
      </trkpt>
      <trkpt lat="44.22397" lon="4.11818">
        <ele>308.62</ele>
        <time>2015-05-22T08:17:34Z</time>
      </trkpt>
      <trkpt lat="44.22388" lon="4.11841">
        <ele>307.07</ele>
        <time>2015-05-22T08:18:32Z</time>
      </trkpt>
      <trkpt lat="44.22372" lon="4.11854">
        <ele>307.9</ele>
        <time>2015-05-22T08:19:02Z</time>
      </trkpt>
      <trkpt lat="44.22359" lon="4.11871">
        <ele>307.74</ele>
        <time>2015-05-22T08:19:26Z</time>
      </trkpt>
      <trkpt lat="44.22345" lon="4.11888">
        <ele>305.99</ele>
        <time>2015-05-22T08:19:43Z</time>
      </trkpt>
      <trkpt lat="44.22363" lon="4.11889">
        <ele>337.38</ele>
        <time>2015-05-22T08:21:10Z</time>
      </trkpt>
      <trkpt lat="44.22381" lon="4.11892">
        <ele>332.22</ele>
        <time>2015-05-22T08:27:09Z</time>
      </trkpt>
      <trkpt lat="44.22399" lon="4.11896">
        <ele>321.09</ele>
        <time>2015-05-22T08:27:30Z</time>
      </trkpt>
      <trkpt lat="44.22416" lon="4.11903">
        <ele>328.13</ele>
        <time>2015-05-22T08:28:19Z</time>
      </trkpt>
      <trkpt lat="44.22408" lon="4.11926">
        <ele>336.99</ele>
        <time>2015-05-22T08:29:01Z</time>
      </trkpt>
      <trkpt lat="44.22395" lon="4.11945">
        <ele>333.92</ele>
        <time>2015-05-22T08:29:26Z</time>
      </trkpt>
      <trkpt lat="44.22403" lon="4.11968">
        <ele>339.48</ele>
        <time>2015-05-22T08:30:18Z</time>
      </trkpt>
      <trkpt lat="44.22419" lon="4.11979">
        <ele>349.44</ele>
        <time>2015-05-22T08:30:37Z</time>
      </trkpt>
      <trkpt lat="44.22435" lon="4.11991">
        <ele>354.25</ele>
        <time>2015-05-22T08:31:13Z</time>
      </trkpt>
      <trkpt lat="44.22451" lon="4.12007">
        <ele>350.75</ele>
        <time>2015-05-22T08:31:53Z</time>
      </trkpt>
      <trkpt lat="44.22464" lon="4.12025">
        <ele>351.79</ele>
        <time>2015-05-22T08:32:16Z</time>
      </trkpt>
      <trkpt lat="44.22475" lon="4.12046">
        <ele>360.83</ele>
        <time>2015-05-22T08:32:41Z</time>
      </trkpt>
      <trkpt lat="44.22485" lon="4.12068">
        <ele>364.39</ele>
        <time>2015-05-22T08:33:03Z</time>
      </trkpt>
      <trkpt lat="44.22495" lon="4.1209">
        <ele>371.88</ele>
        <time>2015-05-22T08:36:32Z</time>
      </trkpt>
      <trkpt lat="44.225" lon="4.12115">
        <ele>372.97</ele>
        <time>2015-05-22T08:36:48Z</time>
      </trkpt>
      <trkpt lat="44.22509" lon="4.12138">
        <ele>363.43</ele>
        <time>2015-05-22T08:37:08Z</time>
      </trkpt>
      <trkpt lat="44.22522" lon="4.12156">
        <ele>365.8</ele>
        <time>2015-05-22T08:37:33Z</time>
      </trkpt>
      <trkpt lat="44.22536" lon="4.12173">
        <ele>364.97</ele>
        <time>2015-05-22T08:37:49Z</time>
      </trkpt>
      <trkpt lat="44.22549" lon="4.12191">
        <ele>373.93</ele>
        <time>2015-05-22T08:38:07Z</time>
      </trkpt>
      <trkpt lat="44.22562" lon="4.12211">
        <ele>372.83</ele>
        <time>2015-05-22T08:38:29Z</time>
      </trkpt>
      <trkpt lat="44.22576" lon="4.12229">
        <ele>377.49</ele>
        <time>2015-05-22T08:39:13Z</time>
      </trkpt>
      <trkpt lat="44.22594" lon="4.12239">
        <ele>377.35</ele>
        <time>2015-05-22T08:39:25Z</time>
      </trkpt>
      <trkpt lat="44.22609" lon="4.12254">
        <ele>385.97</ele>
        <time>2015-05-22T08:39:44Z</time>
      </trkpt>
      <trkpt lat="44.22626" lon="4.12261">
        <ele>383.62</ele>
        <time>2015-05-22T08:40:02Z</time>
      </trkpt>
      <trkpt lat="44.22641" lon="4.12276">
        <ele>386.39</ele>
        <time>2015-05-22T08:40:29Z</time>
      </trkpt>
      <trkpt lat="44.22656" lon="4.12289">
        <ele>388.87</ele>
        <time>2015-05-22T08:40:53Z</time>
      </trkpt>
      <trkpt lat="44.22675" lon="4.12294">
        <ele>383.71</ele>
        <time>2015-05-22T08:41:06Z</time>
      </trkpt>
      <trkpt lat="44.22693" lon="4.12301">
        <ele>388.54</ele>
        <time>2015-05-22T08:41:19Z</time>
      </trkpt>
      <trkpt lat="44.22712" lon="4.12305">
        <ele>391.07</ele>
        <time>2015-05-22T08:41:36Z</time>
      </trkpt>
      <trkpt lat="44.22731" lon="4.12306">
        <ele>390.61</ele>
        <time>2015-05-22T08:41:57Z</time>
      </trkpt>
      <trkpt lat="44.22749" lon="4.12307">
        <ele>380.99</ele>
        <time>2015-05-22T08:43:07Z</time>
      </trkpt>
      <trkpt lat="44.22766" lon="4.12298">
        <ele>375.45</ele>
        <time>2015-05-22T08:43:25Z</time>
      </trkpt>
      <trkpt lat="44.22783" lon="4.12285">
        <ele>382.51</ele>
        <time>2015-05-22T08:43:41Z</time>
      </trkpt>
      <trkpt lat="44.22798" lon="4.12269">
        <ele>381.91</ele>
        <time>2015-05-22T08:44:00Z</time>
      </trkpt>
      <trkpt lat="44.22809" lon="4.12249">
        <ele>382.65</ele>
        <time>2015-05-22T08:44:47Z</time>
      </trkpt>
      <trkpt lat="44.22812" lon="4.12224">
        <ele>379.87</ele>
        <time>2015-05-22T08:45:09Z</time>
      </trkpt>
      <trkpt lat="44.22815" lon="4.12199">
        <ele>374.98</ele>
        <time>2015-05-22T08:45:30Z</time>
      </trkpt>
      <trkpt lat="44.22826" lon="4.12178">
        <ele>369.58</ele>
        <time>2015-05-22T08:45:55Z</time>
      </trkpt>
      <trkpt lat="44.22841" lon="4.12162">
        <ele>368.88</ele>
        <time>2015-05-22T08:46:15Z</time>
      </trkpt>
      <trkpt lat="44.22856" lon="4.12148">
        <ele>366.47</ele>
        <time>2015-05-22T08:46:37Z</time>
      </trkpt>
      <trkpt lat="44.22873" lon="4.12139">
        <ele>368.12</ele>
        <time>2015-05-22T08:46:56Z</time>
      </trkpt>
      <trkpt lat="44.2289" lon="4.12128">
        <ele>367.74</ele>
        <time>2015-05-22T08:47:19Z</time>
      </trkpt>
      <trkpt lat="44.22908" lon="4.12119">
        <ele>366.08</ele>
        <time>2015-05-22T08:47:39Z</time>
      </trkpt>
      <trkpt lat="44.22925" lon="4.1211">
        <ele>366.77</ele>
        <time>2015-05-22T08:47:55Z</time>
      </trkpt>
      <trkpt lat="44.22936" lon="4.1209">
        <ele>360.32</ele>
        <time>2015-05-22T08:48:23Z</time>
      </trkpt>
      <trkpt lat="44.22946" lon="4.12069">
        <ele>360.43</ele>
        <time>2015-05-22T08:48:38Z</time>
      </trkpt>
      <trkpt lat="44.22952" lon="4.12044">
        <ele>354.02</ele>
        <time>2015-05-22T08:49:01Z</time>
      </trkpt>
      <trkpt lat="44.22957" lon="4.12019">
        <ele>361.87</ele>
        <time>2015-05-22T08:49:23Z</time>
      </trkpt>
      <trkpt lat="44.22959" lon="4.11993">
        <ele>358.82</ele>
        <time>2015-05-22T08:49:43Z</time>
      </trkpt>
      <trkpt lat="44.22958" lon="4.11968">
        <ele>360.56</ele>
        <time>2015-05-22T08:50:05Z</time>
      </trkpt>
      <trkpt lat="44.22958" lon="4.11942">
        <ele>355.98</ele>
        <time>2015-05-22T08:56:40Z</time>
      </trkpt>
      <trkpt lat="44.22951" lon="4.11919">
        <ele>353.7</ele>
        <time>2015-05-22T08:56:59Z</time>
      </trkpt>
      <trkpt lat="44.22945" lon="4.11895">
        <ele>355.63</ele>
        <time>2015-05-22T08:57:16Z</time>
      </trkpt>
      <trkpt lat="44.22942" lon="4.11869">
        <ele>350.03</ele>
        <time>2015-05-22T08:57:37Z</time>
      </trkpt>
      <trkpt lat="44.22937" lon="4.11844">
        <ele>350.87</ele>
        <time>2015-05-22T08:57:54Z</time>
      </trkpt>
      <trkpt lat="44.22935" lon="4.11819">
        <ele>359.09</ele>
        <time>2015-05-22T08:58:12Z</time>
      </trkpt>
      <trkpt lat="44.2294" lon="4.11794">
        <ele>360.24</ele>
        <time>2015-05-22T08:58:33Z</time>
      </trkpt>
      <trkpt lat="44.22944" lon="4.11769">
        <ele>360.01</ele>
        <time>2015-05-22T08:58:48Z</time>
      </trkpt>
      <trkpt lat="44.22943" lon="4.11744">
        <ele>362.5</ele>
        <time>2015-05-22T08:59:07Z</time>
      </trkpt>
      <trkpt lat="44.22939" lon="4.11719">
        <ele>362.58</ele>
        <time>2015-05-22T08:59:23Z</time>
      </trkpt>
      <trkpt lat="44.22935" lon="4.11694">
        <ele>363.83</ele>
        <time>2015-05-22T08:59:39Z</time>
      </trkpt>
      <trkpt lat="44.22925" lon="4.11672">
        <ele>363.09</ele>
        <time>2015-05-22T08:59:58Z</time>
      </trkpt>
      <trkpt lat="44.22914" lon="4.11651">
        <ele>361.97</ele>
        <time>2015-05-22T09:00:15Z</time>
      </trkpt>
      <trkpt lat="44.22902" lon="4.11631">
        <ele>362.6</ele>
        <time>2015-05-22T09:00:33Z</time>
      </trkpt>
      <trkpt lat="44.22874" lon="4.11599">
        <ele>370.83</ele>
        <time>2015-05-22T09:01:05Z</time>
      </trkpt>
      <trkpt lat="44.22857" lon="4.1159">
        <ele>372.14</ele>
        <time>2015-05-22T09:01:52Z</time>
      </trkpt>
      <trkpt lat="44.22842" lon="4.11575">
        <ele>370.75</ele>
        <time>2015-05-22T09:02:12Z</time>
      </trkpt>
      <trkpt lat="44.22824" lon="4.11571">
        <ele>373.98</ele>
        <time>2015-05-22T09:02:34Z</time>
      </trkpt>
      <trkpt lat="44.22806" lon="4.11577">
        <ele>372.91</ele>
        <time>2015-05-22T09:02:51Z</time>
      </trkpt>
      <trkpt lat="44.22788" lon="4.1158">
        <ele>374.25</ele>
        <time>2015-05-22T09:03:13Z</time>
      </trkpt>
      <trkpt lat="44.22791" lon="4.11555">
        <ele>374.7</ele>
        <time>2015-05-22T09:04:18Z</time>
      </trkpt>
      <trkpt lat="44.22806" lon="4.1154">
        <ele>378.5</ele>
        <time>2015-05-22T09:04:34Z</time>
      </trkpt>
      <trkpt lat="44.22821" lon="4.11521">
        <ele>375.81</ele>
        <time>2015-05-22T09:04:55Z</time>
      </trkpt>
      <trkpt lat="44.22837" lon="4.1151">
        <ele>378.71</ele>
        <time>2015-05-22T09:05:20Z</time>
      </trkpt>
      <trkpt lat="44.22852" lon="4.11494">
        <ele>377.77</ele>
        <time>2015-05-22T09:05:36Z</time>
      </trkpt>
      <trkpt lat="44.22863" lon="4.11474">
        <ele>379.35</ele>
        <time>2015-05-22T09:05:52Z</time>
      </trkpt>
      <trkpt lat="44.22869" lon="4.1145">
        <ele>382.07</ele>
        <time>2015-05-22T09:06:09Z</time>
      </trkpt>
      <trkpt lat="44.22868" lon="4.11424">
        <ele>385.13</ele>
        <time>2015-05-22T09:06:26Z</time>
      </trkpt>
      <trkpt lat="44.22872" lon="4.11398">
        <ele>386.67</ele>
        <time>2015-05-22T09:06:40Z</time>
      </trkpt>
      <trkpt lat="44.22871" lon="4.11372">
        <ele>390.66</ele>
        <time>2015-05-22T09:06:57Z</time>
      </trkpt>
      <trkpt lat="44.22876" lon="4.11348">
        <ele>393.53</ele>
        <time>2015-05-22T09:07:13Z</time>
      </trkpt>
      <trkpt lat="44.22882" lon="4.11324">
        <ele>391.58</ele>
        <time>2015-05-22T09:07:35Z</time>
      </trkpt>
      <trkpt lat="44.2289" lon="4.113">
        <ele>394.47</ele>
        <time>2015-05-22T09:07:51Z</time>
      </trkpt>
      <trkpt lat="44.22887" lon="4.11274">
        <ele>395.63</ele>
        <time>2015-05-22T09:08:40Z</time>
      </trkpt>
      <trkpt lat="44.22889" lon="4.11248">
        <ele>398.57</ele>
        <time>2015-05-22T09:09:02Z</time>
      </trkpt>
      <trkpt lat="44.22885" lon="4.11222">
        <ele>403.43</ele>
        <time>2015-05-22T09:09:23Z</time>
      </trkpt>
      <trkpt lat="44.22881" lon="4.11198">
        <ele>406.46</ele>
        <time>2015-05-22T09:09:44Z</time>
      </trkpt>
      <trkpt lat="44.2287" lon="4.11177">
        <ele>408.12</ele>
        <time>2015-05-22T09:10:07Z</time>
      </trkpt>
      <trkpt lat="44.22858" lon="4.11157">
        <ele>406.63</ele>
        <time>2015-05-22T09:10:26Z</time>
      </trkpt>
      <trkpt lat="44.22844" lon="4.11141">
        <ele>409</ele>
        <time>2015-05-22T09:10:43Z</time>
      </trkpt>
      <trkpt lat="44.22833" lon="4.1112">
        <ele>411.68</ele>
        <time>2015-05-22T09:11:04Z</time>
      </trkpt>
      <trkpt lat="44.22827" lon="4.11096">
        <ele>414.66</ele>
        <time>2015-05-22T09:12:09Z</time>
      </trkpt>
      <trkpt lat="44.22828" lon="4.11071">
        <ele>416.13</ele>
        <time>2015-05-22T09:16:50Z</time>
      </trkpt>
      <trkpt lat="44.22829" lon="4.11046">
        <ele>418.78</ele>
        <time>2015-05-22T09:17:03Z</time>
      </trkpt>
      <trkpt lat="44.2283" lon="4.1102">
        <ele>420.31</ele>
        <time>2015-05-22T09:17:22Z</time>
      </trkpt>
      <trkpt lat="44.22831" lon="4.10993">
        <ele>421.29</ele>
        <time>2015-05-22T09:17:40Z</time>
      </trkpt>
      <trkpt lat="44.22832" lon="4.10967">
        <ele>419.68</ele>
        <time>2015-05-22T09:17:58Z</time>
      </trkpt>
      <trkpt lat="44.22831" lon="4.10941">
        <ele>423.51</ele>
        <time>2015-05-22T09:18:16Z</time>
      </trkpt>
      <trkpt lat="44.22828" lon="4.10916">
        <ele>426.62</ele>
        <time>2015-05-22T09:18:34Z</time>
      </trkpt>
      <trkpt lat="44.22827" lon="4.10891">
        <ele>427.14</ele>
        <time>2015-05-22T09:18:58Z</time>
      </trkpt>
      <trkpt lat="44.22824" lon="4.10865">
        <ele>432.93</ele>
        <time>2015-05-22T09:19:17Z</time>
      </trkpt>
      <trkpt lat="44.2282" lon="4.10839">
        <ele>433.24</ele>
        <time>2015-05-22T09:19:35Z</time>
      </trkpt>
      <trkpt lat="44.22818" lon="4.10814">
        <ele>431.91</ele>
        <time>2015-05-22T09:19:53Z</time>
      </trkpt>
      <trkpt lat="44.22816" lon="4.10789">
        <ele>433.28</ele>
        <time>2015-05-22T09:20:11Z</time>
      </trkpt>
      <trkpt lat="44.2282" lon="4.10762">
        <ele>433.41</ele>
        <time>2015-05-22T09:20:29Z</time>
      </trkpt>
      <trkpt lat="44.22836" lon="4.10751">
        <ele>438.33</ele>
        <time>2015-05-22T09:20:53Z</time>
      </trkpt>
      <trkpt lat="44.22855" lon="4.10751">
        <ele>433.85</ele>
        <time>2015-05-22T09:21:12Z</time>
      </trkpt>
      <trkpt lat="44.22874" lon="4.10756">
        <ele>438.16</ele>
        <time>2015-05-22T09:21:50Z</time>
      </trkpt>
      <trkpt lat="44.22893" lon="4.10757">
        <ele>442.39</ele>
        <time>2015-05-22T09:22:08Z</time>
      </trkpt>
      <trkpt lat="44.22911" lon="4.1076">
        <ele>447.85</ele>
        <time>2015-05-22T09:22:28Z</time>
      </trkpt>
      <trkpt lat="44.22929" lon="4.10762">
        <ele>449.84</ele>
        <time>2015-05-22T09:22:47Z</time>
      </trkpt>
      <trkpt lat="44.22947" lon="4.10758">
        <ele>451.51</ele>
        <time>2015-05-22T09:23:06Z</time>
      </trkpt>
      <trkpt lat="44.22965" lon="4.10756">
        <ele>453.5</ele>
        <time>2015-05-22T09:23:28Z</time>
      </trkpt>
      <trkpt lat="44.22984" lon="4.10751">
        <ele>452.61</ele>
        <time>2015-05-22T09:23:46Z</time>
      </trkpt>
      <trkpt lat="44.23001" lon="4.10743">
        <ele>453.06</ele>
        <time>2015-05-22T09:24:05Z</time>
      </trkpt>
      <trkpt lat="44.23017" lon="4.10728">
        <ele>462.89</ele>
        <time>2015-05-22T09:29:09Z</time>
      </trkpt>
      <trkpt lat="44.23033" lon="4.10717">
        <ele>463.18</ele>
        <time>2015-05-22T09:29:27Z</time>
      </trkpt>
      <trkpt lat="44.23048" lon="4.10699">
        <ele>467.38</ele>
        <time>2015-05-22T09:29:58Z</time>
      </trkpt>
      <trkpt lat="44.23062" lon="4.10681">
        <ele>466.61</ele>
        <time>2015-05-22T09:30:21Z</time>
      </trkpt>
      <trkpt lat="44.23072" lon="4.10659">
        <ele>467.6</ele>
        <time>2015-05-22T09:30:35Z</time>
      </trkpt>
      <trkpt lat="44.23082" lon="4.10637">
        <ele>468.25</ele>
        <time>2015-05-22T09:30:48Z</time>
      </trkpt>
      <trkpt lat="44.23089" lon="4.10613">
        <ele>471.38</ele>
        <time>2015-05-22T09:31:06Z</time>
      </trkpt>
      <trkpt lat="44.23095" lon="4.10589">
        <ele>466.29</ele>
        <time>2015-05-22T09:31:28Z</time>
      </trkpt>
      <trkpt lat="44.23103" lon="4.10566">
        <ele>467.07</ele>
        <time>2015-05-22T09:32:19Z</time>
      </trkpt>
      <trkpt lat="44.23102" lon="4.10539">
        <ele>471.75</ele>
        <time>2015-05-22T09:32:42Z</time>
      </trkpt>
      <trkpt lat="44.23107" lon="4.10514">
        <ele>475.81</ele>
        <time>2015-05-22T09:33:01Z</time>
      </trkpt>
      <trkpt lat="44.23114" lon="4.1049">
        <ele>473.39</ele>
        <time>2015-05-22T09:33:25Z</time>
      </trkpt>
      <trkpt lat="44.23124" lon="4.10468">
        <ele>480.19</ele>
        <time>2015-05-22T09:34:31Z</time>
      </trkpt>
      <trkpt lat="44.23135" lon="4.10447">
        <ele>477.05</ele>
        <time>2015-05-22T09:34:57Z</time>
      </trkpt>
      <trkpt lat="44.23147" lon="4.10426">
        <ele>476.36</ele>
        <time>2015-05-22T09:35:17Z</time>
      </trkpt>
      <trkpt lat="44.23157" lon="4.10404">
        <ele>479.71</ele>
        <time>2015-05-22T09:35:28Z</time>
      </trkpt>
      <trkpt lat="44.23167" lon="4.10382">
        <ele>481.26</ele>
        <time>2015-05-22T09:36:00Z</time>
      </trkpt>
      <trkpt lat="44.23173" lon="4.10358">
        <ele>481.27</ele>
        <time>2015-05-22T09:36:14Z</time>
      </trkpt>
      <trkpt lat="44.2318" lon="4.10333">
        <ele>486.75</ele>
        <time>2015-05-22T09:36:31Z</time>
      </trkpt>
      <trkpt lat="44.23185" lon="4.10309">
        <ele>490.57</ele>
        <time>2015-05-22T09:36:52Z</time>
      </trkpt>
      <trkpt lat="44.23192" lon="4.10284">
        <ele>495.83</ele>
        <time>2015-05-22T09:37:07Z</time>
      </trkpt>
      <trkpt lat="44.23199" lon="4.1026">
        <ele>500.63</ele>
        <time>2015-05-22T09:37:22Z</time>
      </trkpt>
      <trkpt lat="44.23206" lon="4.10236">
        <ele>500.7</ele>
        <time>2015-05-22T09:37:39Z</time>
      </trkpt>
      <trkpt lat="44.23219" lon="4.10218">
        <ele>500.12</ele>
        <time>2015-05-22T09:37:57Z</time>
      </trkpt>
      <trkpt lat="44.23234" lon="4.10201">
        <ele>501.32</ele>
        <time>2015-05-22T09:38:14Z</time>
      </trkpt>
      <trkpt lat="44.23249" lon="4.10184">
        <ele>500.32</ele>
        <time>2015-05-22T09:38:31Z</time>
      </trkpt>
      <trkpt lat="44.23264" lon="4.10168">
        <ele>500.04</ele>
        <time>2015-05-22T09:38:48Z</time>
      </trkpt>
      <trkpt lat="44.23279" lon="4.10152">
        <ele>496.16</ele>
        <time>2015-05-22T09:39:07Z</time>
      </trkpt>
      <trkpt lat="44.23294" lon="4.10136">
        <ele>499.62</ele>
        <time>2015-05-22T09:41:29Z</time>
      </trkpt>
      <trkpt lat="44.23307" lon="4.10119">
        <ele>496.79</ele>
        <time>2015-05-22T09:41:44Z</time>
      </trkpt>
      <trkpt lat="44.23321" lon="4.10102">
        <ele>494.63</ele>
        <time>2015-05-22T09:42:01Z</time>
      </trkpt>
      <trkpt lat="44.23335" lon="4.10085">
        <ele>495.27</ele>
        <time>2015-05-22T09:42:19Z</time>
      </trkpt>
      <trkpt lat="44.23349" lon="4.10067">
        <ele>491.13</ele>
        <time>2015-05-22T09:42:40Z</time>
      </trkpt>
      <trkpt lat="44.23363" lon="4.10052">
        <ele>490.51</ele>
        <time>2015-05-22T09:42:56Z</time>
      </trkpt>
      <trkpt lat="44.23378" lon="4.10037">
        <ele>486.68</ele>
        <time>2015-05-22T09:43:16Z</time>
      </trkpt>
      <trkpt lat="44.23393" lon="4.10023">
        <ele>484</ele>
        <time>2015-05-22T09:43:35Z</time>
      </trkpt>
      <trkpt lat="44.2341" lon="4.10011">
        <ele>485.62</ele>
        <time>2015-05-22T09:43:54Z</time>
      </trkpt>
      <trkpt lat="44.23426" lon="4.09998">
        <ele>486.92</ele>
        <time>2015-05-22T09:44:09Z</time>
      </trkpt>
      <trkpt lat="44.2344" lon="4.09983">
        <ele>482.68</ele>
        <time>2015-05-22T09:44:57Z</time>
      </trkpt>
      <trkpt lat="44.23457" lon="4.09974">
        <ele>481.48</ele>
        <time>2015-05-22T09:45:15Z</time>
      </trkpt>
      <trkpt lat="44.23474" lon="4.09963">
        <ele>476.41</ele>
        <time>2015-05-22T09:45:34Z</time>
      </trkpt>
      <trkpt lat="44.23492" lon="4.09959">
        <ele>477.92</ele>
        <time>2015-05-22T09:45:51Z</time>
      </trkpt>
      <trkpt lat="44.2351" lon="4.09965">
        <ele>470.09</ele>
        <time>2015-05-22T09:46:07Z</time>
      </trkpt>
      <trkpt lat="44.23522" lon="4.09985">
        <ele>461.8</ele>
        <time>2015-05-22T09:46:23Z</time>
      </trkpt>
      <trkpt lat="44.23535" lon="4.10003">
        <ele>468.05</ele>
        <time>2015-05-22T09:46:41Z</time>
      </trkpt>
      <trkpt lat="44.23541" lon="4.10028">
        <ele>457.79</ele>
        <time>2015-05-22T09:47:01Z</time>
      </trkpt>
      <trkpt lat="44.23541" lon="4.10054">
        <ele>460.88</ele>
        <time>2015-05-22T09:47:21Z</time>
      </trkpt>
      <trkpt lat="44.23538" lon="4.1008">
        <ele>457.78</ele>
        <time>2015-05-22T09:47:48Z</time>
      </trkpt>
      <trkpt lat="44.2353" lon="4.10104">
        <ele>453.79</ele>
        <time>2015-05-22T09:48:06Z</time>
      </trkpt>
      <trkpt lat="44.23521" lon="4.10126">
        <ele>450.93</ele>
        <time>2015-05-22T09:48:23Z</time>
      </trkpt>
      <trkpt lat="44.23538" lon="4.10118">
        <ele>455.02</ele>
        <time>2015-05-22T09:48:56Z</time>
      </trkpt>
      <trkpt lat="44.2355" lon="4.10098">
        <ele>450.88</ele>
        <time>2015-05-22T09:49:20Z</time>
      </trkpt>
      <trkpt lat="44.23561" lon="4.10078">
        <ele>449.61</ele>
        <time>2015-05-22T09:49:38Z</time>
      </trkpt>
      <trkpt lat="44.23568" lon="4.10053">
        <ele>449.8</ele>
        <time>2015-05-22T09:49:55Z</time>
      </trkpt>
      <trkpt lat="44.23572" lon="4.10028">
        <ele>446.74</ele>
        <time>2015-05-22T09:50:15Z</time>
      </trkpt>
      <trkpt lat="44.23573" lon="4.10003">
        <ele>444.17</ele>
        <time>2015-05-22T09:50:33Z</time>
      </trkpt>
      <trkpt lat="44.23572" lon="4.09977">
        <ele>444.12</ele>
        <time>2015-05-22T09:50:52Z</time>
      </trkpt>
      <trkpt lat="44.2357" lon="4.09952">
        <ele>440.86</ele>
        <time>2015-05-22T09:51:10Z</time>
      </trkpt>
      <trkpt lat="44.23567" lon="4.09927">
        <ele>437</ele>
        <time>2015-05-22T09:51:27Z</time>
      </trkpt>
      <trkpt lat="44.23564" lon="4.09902">
        <ele>434.31</ele>
        <time>2015-05-22T09:51:44Z</time>
      </trkpt>
      <trkpt lat="44.2356" lon="4.09877">
        <ele>430.76</ele>
        <time>2015-05-22T09:52:03Z</time>
      </trkpt>
      <trkpt lat="44.23555" lon="4.09853">
        <ele>430.3</ele>
        <time>2015-05-22T09:52:23Z</time>
      </trkpt>
      <trkpt lat="44.23553" lon="4.09827">
        <ele>433.6</ele>
        <time>2015-05-22T09:52:37Z</time>
      </trkpt>
      <trkpt lat="44.23552" lon="4.09802">
        <ele>433.88</ele>
        <time>2015-05-22T09:52:53Z</time>
      </trkpt>
      <trkpt lat="44.23534" lon="4.09802">
        <ele>427.51</ele>
        <time>2015-05-22T09:57:56Z</time>
      </trkpt>
      <trkpt lat="44.23516" lon="4.09802">
        <ele>437.42</ele>
        <time>2015-05-22T09:58:18Z</time>
      </trkpt>
      <trkpt lat="44.23498" lon="4.09808">
        <ele>441.2</ele>
        <time>2015-05-22T09:58:37Z</time>
      </trkpt>
      <trkpt lat="44.23479" lon="4.09812">
        <ele>443.18</ele>
        <time>2015-05-22T09:58:59Z</time>
      </trkpt>
      <trkpt lat="44.23463" lon="4.09821">
        <ele>437.27</ele>
        <time>2015-05-22T09:59:20Z</time>
      </trkpt>
      <trkpt lat="44.23446" lon="4.09832">
        <ele>433.01</ele>
        <time>2015-05-22T09:59:41Z</time>
      </trkpt>
      <trkpt lat="44.23428" lon="4.09834">
        <ele>433.87</ele>
        <time>2015-05-22T10:00:02Z</time>
      </trkpt>
      <trkpt lat="44.2341" lon="4.09843">
        <ele>427.29</ele>
        <time>2015-05-22T10:00:27Z</time>
      </trkpt>
      <trkpt lat="44.23392" lon="4.09843">
        <ele>429.25</ele>
        <time>2015-05-22T10:00:47Z</time>
      </trkpt>
      <trkpt lat="44.23374" lon="4.09852">
        <ele>428.02</ele>
        <time>2015-05-22T10:01:11Z</time>
      </trkpt>
      <trkpt lat="44.23358" lon="4.09863">
        <ele>431.46</ele>
        <time>2015-05-22T10:01:28Z</time>
      </trkpt>
      <trkpt lat="44.23341" lon="4.09872">
        <ele>432.37</ele>
        <time>2015-05-22T10:01:45Z</time>
      </trkpt>
      <trkpt lat="44.23326" lon="4.09886">
        <ele>426.14</ele>
        <time>2015-05-22T10:02:07Z</time>
      </trkpt>
      <trkpt lat="44.23309" lon="4.09896">
        <ele>425.65</ele>
        <time>2015-05-22T10:02:36Z</time>
      </trkpt>
      <trkpt lat="44.23291" lon="4.09901">
        <ele>427.83</ele>
        <time>2015-05-22T10:02:50Z</time>
      </trkpt>
      <trkpt lat="44.23274" lon="4.09909">
        <ele>428.95</ele>
        <time>2015-05-22T10:03:14Z</time>
      </trkpt>
      <trkpt lat="44.23258" lon="4.09921">
        <ele>427.73</ele>
        <time>2015-05-22T10:03:34Z</time>
      </trkpt>
      <trkpt lat="44.23243" lon="4.09938">
        <ele>425.09</ele>
        <time>2015-05-22T10:04:02Z</time>
      </trkpt>
      <trkpt lat="44.23233" lon="4.09959">
        <ele>418.5</ele>
        <time>2015-05-22T10:04:33Z</time>
      </trkpt>
      <trkpt lat="44.23217" lon="4.09973">
        <ele>425.39</ele>
        <time>2015-05-22T10:04:57Z</time>
      </trkpt>
      <trkpt lat="44.23202" lon="4.09988">
        <ele>425.38</ele>
        <time>2015-05-22T10:05:13Z</time>
      </trkpt>
      <trkpt lat="44.23186" lon="4.09999">
        <ele>426</ele>
        <time>2015-05-22T10:05:32Z</time>
      </trkpt>
      <trkpt lat="44.23169" lon="4.10008">
        <ele>419.64</ele>
        <time>2015-05-22T10:06:09Z</time>
      </trkpt>
      <trkpt lat="44.23151" lon="4.10008">
        <ele>418.2</ele>
        <time>2015-05-22T10:07:30Z</time>
      </trkpt>
      <trkpt lat="44.23132" lon="4.10005">
        <ele>412.06</ele>
        <time>2015-05-22T10:07:55Z</time>
      </trkpt>
      <trkpt lat="44.23114" lon="4.09997">
        <ele>408.63</ele>
        <time>2015-05-22T10:08:25Z</time>
      </trkpt>
      <trkpt lat="44.23097" lon="4.09988">
        <ele>407.69</ele>
        <time>2015-05-22T10:08:42Z</time>
      </trkpt>
      <trkpt lat="44.2308" lon="4.09979">
        <ele>401.16</ele>
        <time>2015-05-22T10:09:01Z</time>
      </trkpt>
      <trkpt lat="44.23063" lon="4.09968">
        <ele>405.13</ele>
        <time>2015-05-22T10:09:19Z</time>
      </trkpt>
      <trkpt lat="44.23045" lon="4.09959">
        <ele>405.45</ele>
        <time>2015-05-22T10:09:49Z</time>
      </trkpt>
      <trkpt lat="44.23028" lon="4.09949">
        <ele>404.95</ele>
        <time>2015-05-22T10:10:04Z</time>
      </trkpt>
      <trkpt lat="44.2301" lon="4.09948">
        <ele>400.39</ele>
        <time>2015-05-22T10:10:24Z</time>
      </trkpt>
      <trkpt lat="44.23018" lon="4.09926">
        <ele>392.04</ele>
        <time>2015-05-22T10:12:08Z</time>
      </trkpt>
      <trkpt lat="44.23034" lon="4.09912">
        <ele>393.3</ele>
        <time>2015-05-22T10:12:28Z</time>
      </trkpt>
      <trkpt lat="44.23052" lon="4.09905">
        <ele>392.34</ele>
        <time>2015-05-22T10:12:46Z</time>
      </trkpt>
      <trkpt lat="44.23071" lon="4.099">
        <ele>389.13</ele>
        <time>2015-05-22T10:13:08Z</time>
      </trkpt>
      <trkpt lat="44.23089" lon="4.09894">
        <ele>388.3</ele>
        <time>2015-05-22T10:13:41Z</time>
      </trkpt>
      <trkpt lat="44.23107" lon="4.09897">
        <ele>387.94</ele>
        <time>2015-05-22T10:13:59Z</time>
      </trkpt>
      <trkpt lat="44.23125" lon="4.09894">
        <ele>380.95</ele>
        <time>2015-05-22T10:14:22Z</time>
      </trkpt>
      <trkpt lat="44.23117" lon="4.09871">
        <ele>375.64</ele>
        <time>2015-05-22T10:15:05Z</time>
      </trkpt>
      <trkpt lat="44.2311" lon="4.09847">
        <ele>373.53</ele>
        <time>2015-05-22T10:15:35Z</time>
      </trkpt>
      <trkpt lat="44.23101" lon="4.09824">
        <ele>362.39</ele>
        <time>2015-05-22T10:16:02Z</time>
      </trkpt>
      <trkpt lat="44.23098" lon="4.09799">
        <ele>358.82</ele>
        <time>2015-05-22T10:16:47Z</time>
      </trkpt>
      <trkpt lat="44.23087" lon="4.09778">
        <ele>355.19</ele>
        <time>2015-05-22T10:17:15Z</time>
      </trkpt>
      <trkpt lat="44.23072" lon="4.09765">
        <ele>355.63</ele>
        <time>2015-05-22T10:18:17Z</time>
      </trkpt>
      <trkpt lat="44.23054" lon="4.09761">
        <ele>347.25</ele>
        <time>2015-05-22T10:18:50Z</time>
      </trkpt>
      <trkpt lat="44.23035" lon="4.09757">
        <ele>341.67</ele>
        <time>2015-05-22T10:19:05Z</time>
      </trkpt>
      <trkpt lat="44.23017" lon="4.09753">
        <ele>343.61</ele>
        <time>2015-05-22T10:20:18Z</time>
      </trkpt>
      <trkpt lat="44.22999" lon="4.09744">
        <ele>337.25</ele>
        <time>2015-05-22T10:20:37Z</time>
      </trkpt>
      <trkpt lat="44.22982" lon="4.09734">
        <ele>329.9</ele>
        <time>2015-05-22T10:21:08Z</time>
      </trkpt>
      <trkpt lat="44.22965" lon="4.09731">
        <ele>332.58</ele>
        <time>2015-05-22T10:21:25Z</time>
      </trkpt>
      <trkpt lat="44.22947" lon="4.09731">
        <ele>332.72</ele>
        <time>2015-05-22T10:21:43Z</time>
      </trkpt>
      <trkpt lat="44.22928" lon="4.09723">
        <ele>328.67</ele>
        <time>2015-05-22T10:22:05Z</time>
      </trkpt>
      <trkpt lat="44.2291" lon="4.09717">
        <ele>325.36</ele>
        <time>2015-05-22T10:22:19Z</time>
      </trkpt>
      <trkpt lat="44.22891" lon="4.09714">
        <ele>320.16</ele>
        <time>2015-05-22T10:22:37Z</time>
      </trkpt>
      <trkpt lat="44.22873" lon="4.09716">
        <ele>317.44</ele>
        <time>2015-05-22T10:23:14Z</time>
      </trkpt>
      <trkpt lat="44.22854" lon="4.09721">
        <ele>311.4</ele>
        <time>2015-05-22T10:23:31Z</time>
      </trkpt>
      <trkpt lat="44.22838" lon="4.09735">
        <ele>313.82</ele>
        <time>2015-05-22T10:23:59Z</time>
      </trkpt>
      <trkpt lat="44.22821" lon="4.09747">
        <ele>314.51</ele>
        <time>2015-05-22T10:24:10Z</time>
      </trkpt>
      <trkpt lat="44.22804" lon="4.09757">
        <ele>315.24</ele>
        <time>2015-05-22T10:24:25Z</time>
      </trkpt>
      <trkpt lat="44.22786" lon="4.09762">
        <ele>317.43</ele>
        <time>2015-05-22T10:24:40Z</time>
      </trkpt>
      <trkpt lat="44.22772" lon="4.09747">
        <ele>315.5</ele>
        <time>2015-05-22T10:25:28Z</time>
      </trkpt>
      <trkpt lat="44.22759" lon="4.09728">
        <ele>311.84</ele>
        <time>2015-05-22T10:40:51Z</time>
      </trkpt>
      <trkpt lat="44.22769" lon="4.09741">
        <ele>311.63</ele>
        <time>2015-05-22T11:34:55Z</time>
      </trkpt>
      <trkpt lat="44.22763" lon="4.09765">
        <ele>316.64</ele>
        <time>2015-05-22T11:35:52Z</time>
      </trkpt>
      <trkpt lat="44.22746" lon="4.09771">
        <ele>311.85</ele>
        <time>2015-05-22T11:36:10Z</time>
      </trkpt>
      <trkpt lat="44.22727" lon="4.09771">
        <ele>311.88</ele>
        <time>2015-05-22T11:36:39Z</time>
      </trkpt>
      <trkpt lat="44.2271" lon="4.09762">
        <ele>303.89</ele>
        <time>2015-05-22T11:37:10Z</time>
      </trkpt>
      <trkpt lat="44.22691" lon="4.09762">
        <ele>301.88</ele>
        <time>2015-05-22T11:37:30Z</time>
      </trkpt>
      <trkpt lat="44.22673" lon="4.09761">
        <ele>304.69</ele>
        <time>2015-05-22T11:38:01Z</time>
      </trkpt>
      <trkpt lat="44.22654" lon="4.09758">
        <ele>298.89</ele>
        <time>2015-05-22T11:38:39Z</time>
      </trkpt>
      <trkpt lat="44.22637" lon="4.09747">
        <ele>297.5</ele>
        <time>2015-05-22T11:39:30Z</time>
      </trkpt>
      <trkpt lat="44.2262" lon="4.09737">
        <ele>302.63</ele>
        <time>2015-05-22T11:40:18Z</time>
      </trkpt>
      <trkpt lat="44.22602" lon="4.09735">
        <ele>308.77</ele>
        <time>2015-05-22T11:40:47Z</time>
      </trkpt>
      <trkpt lat="44.22585" lon="4.09746">
        <ele>313.66</ele>
        <time>2015-05-22T11:41:15Z</time>
      </trkpt>
      <trkpt lat="44.22567" lon="4.09747">
        <ele>319.63</ele>
        <time>2015-05-22T11:42:11Z</time>
      </trkpt>
      <trkpt lat="44.22549" lon="4.0975">
        <ele>336.78</ele>
        <time>2015-05-22T11:42:44Z</time>
      </trkpt>
      <trkpt lat="44.22533" lon="4.09762">
        <ele>339.83</ele>
        <time>2015-05-22T11:43:58Z</time>
      </trkpt>
      <trkpt lat="44.22517" lon="4.09775">
        <ele>350.49</ele>
        <time>2015-05-22T11:44:22Z</time>
      </trkpt>
      <trkpt lat="44.22501" lon="4.09788">
        <ele>352.63</ele>
        <time>2015-05-22T11:45:19Z</time>
      </trkpt>
      <trkpt lat="44.22491" lon="4.0981">
        <ele>358.98</ele>
        <time>2015-05-22T11:45:38Z</time>
      </trkpt>
      <trkpt lat="44.2248" lon="4.0983">
        <ele>360.93</ele>
        <time>2015-05-22T11:45:57Z</time>
      </trkpt>
      <trkpt lat="44.22467" lon="4.09849">
        <ele>364.91</ele>
        <time>2015-05-22T11:46:43Z</time>
      </trkpt>
      <trkpt lat="44.2245" lon="4.09863">
        <ele>361.63</ele>
        <time>2015-05-22T11:47:10Z</time>
      </trkpt>
      <trkpt lat="44.22435" lon="4.09878">
        <ele>369.04</ele>
        <time>2015-05-22T11:47:26Z</time>
      </trkpt>
      <trkpt lat="44.22422" lon="4.09897">
        <ele>368.5</ele>
        <time>2015-05-22T11:48:03Z</time>
      </trkpt>
      <trkpt lat="44.22408" lon="4.09914">
        <ele>372.85</ele>
        <time>2015-05-22T11:48:17Z</time>
      </trkpt>
      <trkpt lat="44.22395" lon="4.09934">
        <ele>382.56</ele>
        <time>2015-05-22T11:48:30Z</time>
      </trkpt>
      <trkpt lat="44.22382" lon="4.09951">
        <ele>387.26</ele>
        <time>2015-05-22T11:48:55Z</time>
      </trkpt>
      <trkpt lat="44.22364" lon="4.09957">
        <ele>389.45</ele>
        <time>2015-05-22T11:49:18Z</time>
      </trkpt>
      <trkpt lat="44.22346" lon="4.09964">
        <ele>392.2</ele>
        <time>2015-05-22T11:49:39Z</time>
      </trkpt>
      <trkpt lat="44.22328" lon="4.09962">
        <ele>385.4</ele>
        <time>2015-05-22T11:50:19Z</time>
      </trkpt>
      <trkpt lat="44.22308" lon="4.09961">
        <ele>386.57</ele>
        <time>2015-05-22T11:50:43Z</time>
      </trkpt>
      <trkpt lat="44.22292" lon="4.0995">
        <ele>384.63</ele>
        <time>2015-05-22T11:51:15Z</time>
      </trkpt>
      <trkpt lat="44.22276" lon="4.09936">
        <ele>376.81</ele>
        <time>2015-05-22T11:58:00Z</time>
      </trkpt>
      <trkpt lat="44.2226" lon="4.09923">
        <ele>376.86</ele>
        <time>2015-05-22T11:58:16Z</time>
      </trkpt>
      <trkpt lat="44.22245" lon="4.09908">
        <ele>372.64</ele>
        <time>2015-05-22T11:58:44Z</time>
      </trkpt>
      <trkpt lat="44.22229" lon="4.09895">
        <ele>374.86</ele>
        <time>2015-05-22T11:59:01Z</time>
      </trkpt>
      <trkpt lat="44.22213" lon="4.09882">
        <ele>375.64</ele>
        <time>2015-05-22T11:59:15Z</time>
      </trkpt>
      <trkpt lat="44.22196" lon="4.09872">
        <ele>379.42</ele>
        <time>2015-05-22T11:59:47Z</time>
      </trkpt>
      <trkpt lat="44.2218" lon="4.09859">
        <ele>374.16</ele>
        <time>2015-05-22T12:00:05Z</time>
      </trkpt>
      <trkpt lat="44.22164" lon="4.09846">
        <ele>370.62</ele>
        <time>2015-05-22T12:00:22Z</time>
      </trkpt>
      <trkpt lat="44.22146" lon="4.09838">
        <ele>370.18</ele>
        <time>2015-05-22T12:00:50Z</time>
      </trkpt>
      <trkpt lat="44.22133" lon="4.0982">
        <ele>366.87</ele>
        <time>2015-05-22T12:01:10Z</time>
      </trkpt>
      <trkpt lat="44.22115" lon="4.09812">
        <ele>371.69</ele>
        <time>2015-05-22T12:01:43Z</time>
      </trkpt>
      <trkpt lat="44.22097" lon="4.09812">
        <ele>378.99</ele>
        <time>2015-05-22T12:01:53Z</time>
      </trkpt>
      <trkpt lat="44.22079" lon="4.09807">
        <ele>361.81</ele>
        <time>2015-05-22T12:02:24Z</time>
      </trkpt>
      <trkpt lat="44.22061" lon="4.09799">
        <ele>366.17</ele>
        <time>2015-05-22T12:02:40Z</time>
      </trkpt>
      <trkpt lat="44.22043" lon="4.09796">
        <ele>367.2</ele>
        <time>2015-05-22T12:02:58Z</time>
      </trkpt>
      <trkpt lat="44.22026" lon="4.09786">
        <ele>361.98</ele>
        <time>2015-05-22T12:03:22Z</time>
      </trkpt>
      <trkpt lat="44.22008" lon="4.09782">
        <ele>369.94</ele>
        <time>2015-05-22T12:03:40Z</time>
      </trkpt>
      <trkpt lat="44.21991" lon="4.09776">
        <ele>366.85</ele>
        <time>2015-05-22T12:04:09Z</time>
      </trkpt>
      <trkpt lat="44.21974" lon="4.09788">
        <ele>370.95</ele>
        <time>2015-05-22T12:04:35Z</time>
      </trkpt>
      <trkpt lat="44.21977" lon="4.09813">
        <ele>373.52</ele>
        <time>2015-05-22T12:08:26Z</time>
      </trkpt>
      <trkpt lat="44.21983" lon="4.09837">
        <ele>380</ele>
        <time>2015-05-22T12:08:50Z</time>
      </trkpt>
      <trkpt lat="44.21991" lon="4.09861">
        <ele>386.14</ele>
        <time>2015-05-22T12:09:20Z</time>
      </trkpt>
      <trkpt lat="44.21988" lon="4.09886">
        <ele>386.13</ele>
        <time>2015-05-22T12:09:53Z</time>
      </trkpt>
      <trkpt lat="44.21972" lon="4.09898">
        <ele>386.97</ele>
        <time>2015-05-22T12:10:27Z</time>
      </trkpt>
      <trkpt lat="44.21955" lon="4.09907">
        <ele>386.68</ele>
        <time>2015-05-22T12:10:53Z</time>
      </trkpt>
      <trkpt lat="44.21937" lon="4.09911">
        <ele>387.56</ele>
        <time>2015-05-22T12:11:20Z</time>
      </trkpt>
      <trkpt lat="44.21918" lon="4.0991">
        <ele>390.85</ele>
        <time>2015-05-22T12:11:40Z</time>
      </trkpt>
      <trkpt lat="44.21901" lon="4.0992">
        <ele>394.68</ele>
        <time>2015-05-22T12:12:03Z</time>
      </trkpt>
      <trkpt lat="44.21883" lon="4.09923">
        <ele>398.93</ele>
        <time>2015-05-22T12:12:25Z</time>
      </trkpt>
      <trkpt lat="44.21864" lon="4.09929">
        <ele>398.73</ele>
        <time>2015-05-22T12:12:50Z</time>
      </trkpt>
      <trkpt lat="44.21846" lon="4.09932">
        <ele>401.83</ele>
        <time>2015-05-22T12:13:11Z</time>
      </trkpt>
      <trkpt lat="44.21835" lon="4.09952">
        <ele>402.13</ele>
        <time>2015-05-22T12:15:21Z</time>
      </trkpt>
      <trkpt lat="44.21827" lon="4.09976">
        <ele>404.5</ele>
        <time>2015-05-22T12:15:49Z</time>
      </trkpt>
      <trkpt lat="44.21808" lon="4.09974">
        <ele>401.32</ele>
        <time>2015-05-22T12:17:30Z</time>
      </trkpt>
      <trkpt lat="44.2179" lon="4.09972">
        <ele>400.36</ele>
        <time>2015-05-22T12:17:55Z</time>
      </trkpt>
      <trkpt lat="44.21772" lon="4.09981">
        <ele>400.73</ele>
        <time>2015-05-22T12:18:12Z</time>
      </trkpt>
      <trkpt lat="44.21758" lon="4.09999">
        <ele>399.15</ele>
        <time>2015-05-22T12:18:34Z</time>
      </trkpt>
      <trkpt lat="44.21748" lon="4.1002">
        <ele>404.7</ele>
        <time>2015-05-22T12:18:56Z</time>
      </trkpt>
      <trkpt lat="44.21749" lon="4.10046">
        <ele>404.62</ele>
        <time>2015-05-22T12:19:14Z</time>
      </trkpt>
      <trkpt lat="44.21745" lon="4.10072">
        <ele>408.36</ele>
        <time>2015-05-22T12:19:36Z</time>
      </trkpt>
      <trkpt lat="44.21749" lon="4.10098">
        <ele>406.9</ele>
        <time>2015-05-22T12:19:55Z</time>
      </trkpt>
      <trkpt lat="44.21753" lon="4.10123">
        <ele>405.71</ele>
        <time>2015-05-22T12:20:12Z</time>
      </trkpt>
      <trkpt lat="44.2176" lon="4.10147">
        <ele>408.96</ele>
        <time>2015-05-22T12:20:34Z</time>
      </trkpt>
      <trkpt lat="44.21771" lon="4.10166">
        <ele>406.99</ele>
        <time>2015-05-22T12:20:58Z</time>
      </trkpt>
      <trkpt lat="44.2177" lon="4.10191">
        <ele>409.37</ele>
        <time>2015-05-22T12:21:17Z</time>
      </trkpt>
      <trkpt lat="44.21765" lon="4.10216">
        <ele>414.05</ele>
        <time>2015-05-22T12:22:07Z</time>
      </trkpt>
      <trkpt lat="44.21762" lon="4.10241">
        <ele>409.77</ele>
        <time>2015-05-22T12:22:24Z</time>
      </trkpt>
      <trkpt lat="44.21761" lon="4.10267">
        <ele>408.61</ele>
        <time>2015-05-22T12:22:45Z</time>
      </trkpt>
      <trkpt lat="44.21761" lon="4.10292">
        <ele>412.9</ele>
        <time>2015-05-22T12:23:17Z</time>
      </trkpt>
      <trkpt lat="44.21764" lon="4.10317">
        <ele>417.62</ele>
        <time>2015-05-22T12:24:28Z</time>
      </trkpt>
      <trkpt lat="44.21771" lon="4.10341">
        <ele>419.86</ele>
        <time>2015-05-22T12:24:45Z</time>
      </trkpt>
      <trkpt lat="44.21774" lon="4.10368">
        <ele>418.63</ele>
        <time>2015-05-22T12:25:38Z</time>
      </trkpt>
      <trkpt lat="44.21778" lon="4.10393">
        <ele>421.35</ele>
        <time>2015-05-22T12:25:59Z</time>
      </trkpt>
      <trkpt lat="44.21779" lon="4.1042">
        <ele>417.68</ele>
        <time>2015-05-22T12:26:21Z</time>
      </trkpt>
      <trkpt lat="44.21794" lon="4.10434">
        <ele>424.52</ele>
        <time>2015-05-22T12:28:45Z</time>
      </trkpt>
      <trkpt lat="44.21811" lon="4.10443">
        <ele>421.75</ele>
        <time>2015-05-22T12:29:04Z</time>
      </trkpt>
      <trkpt lat="44.21823" lon="4.10463">
        <ele>423.37</ele>
        <time>2015-05-22T12:29:20Z</time>
      </trkpt>
      <trkpt lat="44.21836" lon="4.10481">
        <ele>426.86</ele>
        <time>2015-05-22T12:29:39Z</time>
      </trkpt>
      <trkpt lat="44.2185" lon="4.10498">
        <ele>437.61</ele>
        <time>2015-05-22T12:29:54Z</time>
      </trkpt>
      <trkpt lat="44.21867" lon="4.10508">
        <ele>431.19</ele>
        <time>2015-05-22T12:30:15Z</time>
      </trkpt>
      <trkpt lat="44.21886" lon="4.10515">
        <ele>428.84</ele>
        <time>2015-05-22T12:30:35Z</time>
      </trkpt>
      <trkpt lat="44.21902" lon="4.10528">
        <ele>426.27</ele>
        <time>2015-05-22T12:30:53Z</time>
      </trkpt>
      <trkpt lat="44.21919" lon="4.10538">
        <ele>421.42</ele>
        <time>2015-05-22T12:31:12Z</time>
      </trkpt>
      <trkpt lat="44.21934" lon="4.10553">
        <ele>420.28</ele>
        <time>2015-05-22T12:31:30Z</time>
      </trkpt>
      <trkpt lat="44.21926" lon="4.10576">
        <ele>395.37</ele>
        <time>2015-05-22T12:32:00Z</time>
      </trkpt>
      <trkpt lat="44.21914" lon="4.10595">
        <ele>411.54</ele>
        <time>2015-05-22T12:32:17Z</time>
      </trkpt>
      <trkpt lat="44.21903" lon="4.10616">
        <ele>403.02</ele>
        <time>2015-05-22T12:32:37Z</time>
      </trkpt>
      <trkpt lat="44.21895" lon="4.1064">
        <ele>405.96</ele>
        <time>2015-05-22T12:32:57Z</time>
      </trkpt>
      <trkpt lat="44.21885" lon="4.10663">
        <ele>409.59</ele>
        <time>2015-05-22T12:33:18Z</time>
      </trkpt>
      <trkpt lat="44.21872" lon="4.10682">
        <ele>405.1</ele>
        <time>2015-05-22T12:33:40Z</time>
      </trkpt>
      <trkpt lat="44.21853" lon="4.10683">
        <ele>405.11</ele>
        <time>2015-05-22T12:34:36Z</time>
      </trkpt>
      <trkpt lat="44.21836" lon="4.10672">
        <ele>410.31</ele>
        <time>2015-05-22T12:35:43Z</time>
      </trkpt>
      <trkpt lat="44.21836" lon="4.10646">
        <ele>402.39</ele>
        <time>2015-05-22T12:37:43Z</time>
      </trkpt>
      <trkpt lat="44.21835" lon="4.10673">
        <ele>406.05</ele>
        <time>2015-05-22T12:38:20Z</time>
      </trkpt>
      <trkpt lat="44.21819" lon="4.10687">
        <ele>408.15</ele>
        <time>2015-05-22T12:39:09Z</time>
      </trkpt>
      <trkpt lat="44.21835" lon="4.10674">
        <ele>412.56</ele>
        <time>2015-05-22T12:39:54Z</time>
      </trkpt>
      <trkpt lat="44.21854" lon="4.1067">
        <ele>409.85</ele>
        <time>2015-05-22T12:40:15Z</time>
      </trkpt>
      <trkpt lat="44.21865" lon="4.10649">
        <ele>409</ele>
        <time>2015-05-22T12:40:37Z</time>
      </trkpt>
      <trkpt lat="44.21863" lon="4.10623">
        <ele>409.65</ele>
        <time>2015-05-22T12:41:49Z</time>
      </trkpt>
      <trkpt lat="44.21858" lon="4.10598">
        <ele>413.44</ele>
        <time>2015-05-22T12:43:03Z</time>
      </trkpt>
      <trkpt lat="44.21858" lon="4.10573">
        <ele>415.63</ele>
        <time>2015-05-22T12:43:35Z</time>
      </trkpt>
      <trkpt lat="44.2186" lon="4.10547">
        <ele>421.43</ele>
        <time>2015-05-22T12:43:59Z</time>
      </trkpt>
      <trkpt lat="44.21859" lon="4.10521">
        <ele>414.43</ele>
        <time>2015-05-22T12:44:20Z</time>
      </trkpt>
      <trkpt lat="44.21845" lon="4.10505">
        <ele>412.82</ele>
        <time>2015-05-22T12:44:41Z</time>
      </trkpt>
      <trkpt lat="44.21833" lon="4.10485">
        <ele>414.81</ele>
        <time>2015-05-22T12:45:04Z</time>
      </trkpt>
      <trkpt lat="44.21822" lon="4.10466">
        <ele>417.66</ele>
        <time>2015-05-22T12:45:23Z</time>
      </trkpt>
      <trkpt lat="44.21808" lon="4.1045">
        <ele>415.81</ele>
        <time>2015-05-22T12:45:37Z</time>
      </trkpt>
      <trkpt lat="44.21792" lon="4.10435">
        <ele>416.63</ele>
        <time>2015-05-22T12:45:52Z</time>
      </trkpt>
      <trkpt lat="44.21775" lon="4.10429">
        <ele>423.57</ele>
        <time>2015-05-22T12:46:10Z</time>
      </trkpt>
      <trkpt lat="44.21757" lon="4.10436">
        <ele>418.13</ele>
        <time>2015-05-22T12:46:30Z</time>
      </trkpt>
      <trkpt lat="44.21739" lon="4.10446">
        <ele>423.58</ele>
        <time>2015-05-22T12:48:51Z</time>
      </trkpt>
      <trkpt lat="44.21722" lon="4.10454">
        <ele>421.15</ele>
        <time>2015-05-22T12:49:03Z</time>
      </trkpt>
      <trkpt lat="44.21706" lon="4.10467">
        <ele>422.15</ele>
        <time>2015-05-22T12:49:22Z</time>
      </trkpt>
      <trkpt lat="44.21689" lon="4.10477">
        <ele>423.1</ele>
        <time>2015-05-22T12:49:38Z</time>
      </trkpt>
      <trkpt lat="44.21673" lon="4.1049">
        <ele>429.67</ele>
        <time>2015-05-22T12:50:29Z</time>
      </trkpt>
      <trkpt lat="44.21657" lon="4.10504">
        <ele>428.64</ele>
        <time>2015-05-22T12:50:49Z</time>
      </trkpt>
      <trkpt lat="44.21643" lon="4.1052">
        <ele>425.94</ele>
        <time>2015-05-22T12:51:07Z</time>
      </trkpt>
      <trkpt lat="44.21626" lon="4.10531">
        <ele>425.85</ele>
        <time>2015-05-22T12:51:27Z</time>
      </trkpt>
      <trkpt lat="44.21611" lon="4.10547">
        <ele>425.66</ele>
        <time>2015-05-22T12:51:45Z</time>
      </trkpt>
      <trkpt lat="44.21597" lon="4.10564">
        <ele>415.3</ele>
        <time>2015-05-22T12:52:03Z</time>
      </trkpt>
      <trkpt lat="44.2158" lon="4.10576">
        <ele>415.21</ele>
        <time>2015-05-22T12:52:22Z</time>
      </trkpt>
      <trkpt lat="44.21562" lon="4.10584">
        <ele>414.57</ele>
        <time>2015-05-22T12:52:36Z</time>
      </trkpt>
      <trkpt lat="44.21548" lon="4.106">
        <ele>410.43</ele>
        <time>2015-05-22T12:52:52Z</time>
      </trkpt>
      <trkpt lat="44.21532" lon="4.10612">
        <ele>409.15</ele>
        <time>2015-05-22T12:53:07Z</time>
      </trkpt>
      <trkpt lat="44.2152" lon="4.10632">
        <ele>408.73</ele>
        <time>2015-05-22T12:53:27Z</time>
      </trkpt>
      <trkpt lat="44.21504" lon="4.10649">
        <ele>404.23</ele>
        <time>2015-05-22T12:53:44Z</time>
      </trkpt>
      <trkpt lat="44.21491" lon="4.10666">
        <ele>405.48</ele>
        <time>2015-05-22T12:54:01Z</time>
      </trkpt>
      <trkpt lat="44.21476" lon="4.10681">
        <ele>405.6</ele>
        <time>2015-05-22T12:54:23Z</time>
      </trkpt>
      <trkpt lat="44.21461" lon="4.10699">
        <ele>402.44</ele>
        <time>2015-05-22T12:54:39Z</time>
      </trkpt>
      <trkpt lat="44.21456" lon="4.10724">
        <ele>393.13</ele>
        <time>2015-05-22T12:54:56Z</time>
      </trkpt>
      <trkpt lat="44.21452" lon="4.10749">
        <ele>397.2</ele>
        <time>2015-05-22T12:55:14Z</time>
      </trkpt>
      <trkpt lat="44.21442" lon="4.1077">
        <ele>393.77</ele>
        <time>2015-05-22T12:55:29Z</time>
      </trkpt>
      <trkpt lat="44.2143" lon="4.10789">
        <ele>391.3</ele>
        <time>2015-05-22T12:55:44Z</time>
      </trkpt>
      <trkpt lat="44.21427" lon="4.10814">
        <ele>392.37</ele>
        <time>2015-05-22T12:55:57Z</time>
      </trkpt>
      <trkpt lat="44.21423" lon="4.10839">
        <ele>389.26</ele>
        <time>2015-05-22T12:56:16Z</time>
      </trkpt>
      <trkpt lat="44.21426" lon="4.10865">
        <ele>390.78</ele>
        <time>2015-05-22T12:56:29Z</time>
      </trkpt>
      <trkpt lat="44.21428" lon="4.10891">
        <ele>394.95</ele>
        <time>2015-05-22T12:56:43Z</time>
      </trkpt>
      <trkpt lat="44.21429" lon="4.10916">
        <ele>395.25</ele>
        <time>2015-05-22T12:56:58Z</time>
      </trkpt>
      <trkpt lat="44.21425" lon="4.10941">
        <ele>392.3</ele>
        <time>2015-05-22T12:57:20Z</time>
      </trkpt>
      <trkpt lat="44.21414" lon="4.10962">
        <ele>388.28</ele>
        <time>2015-05-22T12:57:35Z</time>
      </trkpt>
      <trkpt lat="44.2141" lon="4.10988">
        <ele>388.75</ele>
        <time>2015-05-22T12:57:50Z</time>
      </trkpt>
      <trkpt lat="44.21397" lon="4.11008">
        <ele>390.44</ele>
        <time>2015-05-22T12:58:17Z</time>
      </trkpt>
      <trkpt lat="44.2138" lon="4.11017">
        <ele>384.84</ele>
        <time>2015-05-22T12:58:39Z</time>
      </trkpt>
      <trkpt lat="44.21362" lon="4.11024">
        <ele>381.71</ele>
        <time>2015-05-22T12:58:50Z</time>
      </trkpt>
      <trkpt lat="44.21344" lon="4.11033">
        <ele>381.24</ele>
        <time>2015-05-22T12:59:03Z</time>
      </trkpt>
      <trkpt lat="44.21326" lon="4.11044">
        <ele>376.38</ele>
        <time>2015-05-22T12:59:35Z</time>
      </trkpt>
      <trkpt lat="44.21307" lon="4.11048">
        <ele>376.61</ele>
        <time>2015-05-22T12:59:53Z</time>
      </trkpt>
      <trkpt lat="44.21288" lon="4.11053">
        <ele>372.96</ele>
        <time>2015-05-22T13:00:02Z</time>
      </trkpt>
      <trkpt lat="44.21274" lon="4.1107">
        <ele>372.77</ele>
        <time>2015-05-22T13:00:15Z</time>
      </trkpt>
      <trkpt lat="44.21258" lon="4.11081">
        <ele>372.96</ele>
        <time>2015-05-22T13:00:29Z</time>
      </trkpt>
      <trkpt lat="44.21242" lon="4.11094">
        <ele>371.6</ele>
        <time>2015-05-22T13:00:46Z</time>
      </trkpt>
      <trkpt lat="44.21228" lon="4.1111">
        <ele>369.01</ele>
        <time>2015-05-22T13:01:03Z</time>
      </trkpt>
    </trkseg>
  </trk>
</gpx>